KFUL/FUL METAR and TAF weather

Enter ICAO airport designator
Station Type Date Time Source
KFUL METAR 2019/12/09 05:53 UTC NOAA

KFUL 090553Z AUTO 00000KT 10SM BKN019 BKN023 OVC040 14/12 A3001 RMK AO2 SLP161 T01440117 10172 20139 53006


Station Type Date Time Source
KFUL Decoded METAR 2019/12/09 05:53 UTC NOAA

FULLERTON MUNICIPAL AIRPORT , CA, United States (KFUL) 33-52N 117-59W 35M
Dec 09, 2019 - 12:53 AM EST / 2019.12.09 0553 UTC
Wind: Calm:0
Visibility: 10 mile(s):0
Sky conditions: overcast
Temperature: 57.9 F (14.4 C)
Dew Point: 53.1 F (11.7 C)
Relative Humidity: 83%
Pressure (altimeter): 30.01 in. Hg (1016 hPa)
Pressure tendency: 0.02 inches (0.6 hPa) higher than three hours ago
ob: KFUL 090553Z AUTO 00000KT 10SM BKN019 BKN023 OVC040 14/12 A3001 RMK AO2 SLP161 T01440117 10172 20139 53006
cycle: 6

Station Type Date Time Source
KFUL TAF UTC NOAA

Error!

Example: see airport list